sensor_id;sensor_type;location;lat;lon;timestamp;temperature;humidity
10538;DHT22;5317;49.048;8.468;2023-02-11T00:00:13;5.60;54.90
10538;DHT22;5317;49.048;8.468;2023-02-11T00:02:42;5.60;55.00
10538;DHT22;5317;49.048;8.468;2023-02-11T00:05:09;5.60;54.90
10538;DHT22;5317;49.048;8.468;2023-02-11T00:07:36;5.60;54.90
10538;DHT22;5317;49.048;8.468;2023-02-11T00:10:03;5.60;55.00
10538;DHT22;5317;49.048;8.468;2023-02-11T00:12:32;5.60;55.10
10538;DHT22;5317;49.048;8.468;2023-02-11T00:14:59;5.50;55.10
10538;DHT22;5317;49.048;8.468;2023-02-11T00:17:26;5.50;55.00
10538;DHT22;5317;49.048;8.468;2023-02-11T00:19:54;5.50;55.10
10538;DHT22;5317;49.048;8.468;2023-02-11T00:22:21;5.50;55.10
10538;DHT22;5317;49.048;8.468;2023-02-11T00:24:48;5.50;55.10
10538;DHT22;5317;49.048;8.468;2023-02-11T00:27:15;5.50;55.00
10538;DHT22;5317;49.048;8.468;2023-02-11T00:29:42;5.50;55.10
10538;DHT22;5317;49.048;8.468;2023-02-11T00:32:09;5.50;55.30
10538;DHT22;5317;49.048;8.468;2023-02-11T00:34:36;5.50;55.30
10538;DHT22;5317;49.048;8.468;2023-02-11T00:37:05;5.50;55.20
10538;DHT22;5317;49.048;8.468;2023-02-11T00:39:31;5.50;55.30
10538;DHT22;5317;49.048;8.468;2023-02-11T00:41:58;5.50;55.30
10538;DHT22;5317;49.048;8.468;2023-02-11T00:44:25;5.60;55.40
10538;DHT22;5317;49.048;8.468;2023-02-11T00:46:52;5.50;55.40
10538;DHT22;5317;49.048;8.468;2023-02-11T00:49:19;5.60;55.30
10538;DHT22;5317;49.048;8.468;2023-02-11T00:51:46;5.60;55.20
10538;DHT22;5317;49.048;8.468;2023-02-11T00:54:14;5.60;55.20
10538;DHT22;5317;49.048;8.468;2023-02-11T00:56:41;5.60;55.10
10538;DHT22;5317;49.048;8.468;2023-02-11T00:59:08;5.70;55.30
10538;DHT22;5317;49.048;8.468;2023-02-11T01:01:36;5.70;55.20
10538;DHT22;5317;49.048;8.468;2023-02-11T01:04:03;5.70;55.20
10538;DHT22;5317;49.048;8.468;2023-02-11T01:06:30;5.60;55.10
10538;DHT22;5317;49.048;8.468;2023-02-11T01:08:57;5.70;55.20
10538;DHT22;5317;49.048;8.468;2023-02-11T01:11:25;5.70;55.20
10538;DHT22;5317;49.048;8.468;2023-02-11T01:13:52;5.70;55.20
10538;DHT22;5317;49.048;8.468;2023-02-11T01:16:19;5.70;55.20
10538;DHT22;5317;49.048;8.468;2023-02-11T01:18:46;5.60;55.20
10538;DHT22;5317;49.048;8.468;2023-02-11T01:21:13;5.60;55.30
10538;DHT22;5317;49.048;8.468;2023-02-11T01:23:40;5.60;55.90
10538;DHT22;5317;49.048;8.468;2023-02-11T01:26:07;5.70;55.50
10538;DHT22;5317;49.048;8.468;2023-02-11T01:28:35;5.60;55.40
10538;DHT22;5317;49.048;8.468;2023-02-11T01:31:03;5.70;55.50
10538;DHT22;5317;49.048;8.468;2023-02-11T01:33:30;5.70;55.50
10538;DHT22;5317;49.048;8.468;2023-02-11T01:35:59;5.70;55.60
10538;DHT22;5317;49.048;8.468;2023-02-11T01:38:27;5.70;55.80
10538;DHT22;5317;49.048;8.468;2023-02-11T01:40:56;5.70;55.90
10538;DHT22;5317;49.048;8.468;2023-02-11T01:43:24;5.70;55.90
10538;DHT22;5317;49.048;8.468;2023-02-11T01:46:00;5.70;55.90
10538;DHT22;5317;49.048;8.468;2023-02-11T01:48:31;5.70;56.00
10538;DHT22;5317;49.048;8.468;2023-02-11T01:51:02;5.80;56.00
10538;DHT22;5317;49.048;8.468;2023-02-11T01:53:31;5.80;56.00
10538;DHT22;5317;49.048;8.468;2023-02-11T01:56:18;5.80;55.90
10538;DHT22;5317;49.048;8.468;2023-02-11T01:59:06;5.80;56.00
10538;DHT22;5317;49.048;8.468;2023-02-11T02:01:37;5.80;56.00
10538;DHT22;5317;49.048;8.468;2023-02-11T02:04:07;5.80;56.10
10538;DHT22;5317;49.048;8.468;2023-02-11T02:06:42;5.90;56.10
10538;DHT22;5317;49.048;8.468;2023-02-11T02:09:16;5.90;56.00
10538;DHT22;5317;49.048;8.468;2023-02-11T02:11:44;5.90;56.10
10538;DHT22;5317;49.048;8.468;2023-02-11T02:14:10;5.90;56.00
10538;DHT22;5317;49.048;8.468;2023-02-11T02:16:39;5.80;56.30
10538;DHT22;5317;49.048;8.468;2023-02-11T02:22:40;5.80;56.60
10538;DHT22;5317;49.048;8.468;2023-02-11T02:25:23;5.80;56.60
10538;DHT22;5317;49.048;8.468;2023-02-11T02:28:00;5.80;56.50
10538;DHT22;5317;49.048;8.468;2023-02-11T02:30:48;5.90;56.40
10538;DHT22;5317;49.048;8.468;2023-02-11T02:33:24;5.90;56.20
10538;DHT22;5317;49.048;8.468;2023-02-11T02:36:04;5.90;56.30
10538;DHT22;5317;49.048;8.468;2023-02-11T02:38:36;6.00;56.90
10538;DHT22;5317;49.048;8.468;2023-02-11T02:41:07;6.00;56.40
10538;DHT22;5317;49.048;8.468;2023-02-11T02:43:38;6.00;56.30
10538;DHT22;5317;49.048;8.468;2023-02-11T02:46:13;5.90;56.30
10538;DHT22;5317;49.048;8.468;2023-02-11T02:48:43;5.90;56.60
10538;DHT22;5317;49.048;8.468;2023-02-11T02:51:21;5.90;56.50
10538;DHT22;5317;49.048;8.468;2023-02-11T02:54:01;5.90;56.40
10538;DHT22;5317;49.048;8.468;2023-02-11T02:56:38;5.90;56.50
10538;DHT22;5317;49.048;8.468;2023-02-11T02:59:28;5.90;56.60
10538;DHT22;5317;49.048;8.468;2023-02-11T03:02:05;5.90;56.70
10538;DHT22;5317;49.048;8.468;2023-02-11T03:04:42;6.00;56.70
10538;DHT22;5317;49.048;8.468;2023-02-11T03:07:21;6.00;56.70
10538;DHT22;5317;49.048;8.468;2023-02-11T03:09:55;6.00;56.70
10538;DHT22;5317;49.048;8.468;2023-02-11T03:12:25;6.00;56.70
10538;DHT22;5317;49.048;8.468;2023-02-11T03:14:53;5.90;56.70
10538;DHT22;5317;49.048;8.468;2023-02-11T03:17:20;5.90;56.70
10538;DHT22;5317;49.048;8.468;2023-02-11T03:19:50;5.90;56.70
10538;DHT22;5317;49.048;8.468;2023-02-11T03:22:21;5.90;56.70
10538;DHT22;5317;49.048;8.468;2023-02-11T03:24:50;5.90;56.70
10538;DHT22;5317;49.048;8.468;2023-02-11T03:27:20;5.90;56.70
10538;DHT22;5317;49.048;8.468;2023-02-11T03:29:52;5.90;56.80
10538;DHT22;5317;49.048;8.468;2023-02-11T03:32:25;5.90;56.90
10538;DHT22;5317;49.048;8.468;2023-02-11T03:34:57;6.00;57.00
10538;DHT22;5317;49.048;8.468;2023-02-11T03:37:28;6.00;57.10
10538;DHT22;5317;49.048;8.468;2023-02-11T03:40:00;6.00;57.10
10538;DHT22;5317;49.048;8.468;2023-02-11T03:42:32;5.90;57.30
10538;DHT22;5317;49.048;8.468;2023-02-11T03:45:05;5.90;57.30
10538;DHT22;5317;49.048;8.468;2023-02-11T03:47:34;5.90;57.40
10538;DHT22;5317;49.048;8.468;2023-02-11T03:50:06;5.90;57.60
10538;DHT22;5317;49.048;8.468;2023-02-11T03:52:36;5.90;57.90
10538;DHT22;5317;49.048;8.468;2023-02-11T03:55:08;5.90;57.80
10538;DHT22;5317;49.048;8.468;2023-02-11T03:57:37;5.90;57.90
10538;DHT22;5317;49.048;8.468;2023-02-11T04:00:05;5.90;57.80
10538;DHT22;5317;49.048;8.468;2023-02-11T04:02:34;6.00;57.80
10538;DHT22;5317;49.048;8.468;2023-02-11T04:05:01;6.00;57.80
10538;DHT22;5317;49.048;8.468;2023-02-11T04:07:30;6.00;57.90
10538;DHT22;5317;49.048;8.468;2023-02-11T04:09:56;6.10;57.90
10538;DHT22;5317;49.048;8.468;2023-02-11T04:12:24;6.10;57.90
10538;DHT22;5317;49.048;8.468;2023-02-11T04:14:50;6.10;57.90
10538;DHT22;5317;49.048;8.468;2023-02-11T04:17:17;6.20;58.00
10538;DHT22;5317;49.048;8.468;2023-02-11T04:19:44;6.20;58.00
10538;DHT22;5317;49.048;8.468;2023-02-11T04:22:11;6.30;58.10
10538;DHT22;5317;49.048;8.468;2023-02-11T04:24:39;6.20;57.90
10538;DHT22;5317;49.048;8.468;2023-02-11T04:27:08;6.20;57.90
10538;DHT22;5317;49.048;8.468;2023-02-11T04:29:35;6.30;57.90
10538;DHT22;5317;49.048;8.468;2023-02-11T04:32:02;6.30;57.70
10538;DHT22;5317;49.048;8.468;2023-02-11T04:34:29;6.30;57.70
10538;DHT22;5317;49.048;8.468;2023-02-11T04:36:56;6.30;57.70
10538;DHT22;5317;49.048;8.468;2023-02-11T04:39:23;6.40;57.60
10538;DHT22;5317;49.048;8.468;2023-02-11T04:41:51;6.40;57.60
10538;DHT22;5317;49.048;8.468;2023-02-11T04:44:18;6.40;57.50
10538;DHT22;5317;49.048;8.468;2023-02-11T04:46:45;6.40;57.60
10538;DHT22;5317;49.048;8.468;2023-02-11T04:49:12;6.40;57.70
10538;DHT22;5317;49.048;8.468;2023-02-11T04:51:39;6.40;57.70
10538;DHT22;5317;49.048;8.468;2023-02-11T04:54:06;6.50;57.80
10538;DHT22;5317;49.048;8.468;2023-02-11T04:56:33;6.50;57.90
10538;DHT22;5317;49.048;8.468;2023-02-11T04:59:01;6.40;57.80
10538;DHT22;5317;49.048;8.468;2023-02-11T05:01:29;6.50;57.80
10538;DHT22;5317;49.048;8.468;2023-02-11T05:03:56;6.50;57.90
10538;DHT22;5317;49.048;8.468;2023-02-11T05:06:23;6.60;57.90
10538;DHT22;5317;49.048;8.468;2023-02-11T05:08:50;6.50;57.80
10538;DHT22;5317;49.048;8.468;2023-02-11T05:11:19;6.60;57.70
10538;DHT22;5317;49.048;8.468;2023-02-11T05:13:46;6.50;57.60
10538;DHT22;5317;49.048;8.468;2023-02-11T05:16:16;6.50;57.60
10538;DHT22;5317;49.048;8.468;2023-02-11T05:18:43;6.50;58.10
10538;DHT22;5317;49.048;8.468;2023-02-11T05:21:12;6.60;57.60
10538;DHT22;5317;49.048;8.468;2023-02-11T05:23:40;6.50;57.50
10538;DHT22;5317;49.048;8.468;2023-02-11T05:26:08;6.50;57.50
10538;DHT22;5317;49.048;8.468;2023-02-11T05:28:35;6.40;57.60
10538;DHT22;5317;49.048;8.468;2023-02-11T05:31:03;6.50;57.80
10538;DHT22;5317;49.048;8.468;2023-02-11T05:33:32;6.50;57.90
10538;DHT22;5317;49.048;8.468;2023-02-11T05:35:59;6.40;57.80
10538;DHT22;5317;49.048;8.468;2023-02-11T05:38:26;6.50;57.90
10538;DHT22;5317;49.048;8.468;2023-02-11T05:40:53;6.50;57.80
10538;DHT22;5317;49.048;8.468;2023-02-11T05:43:20;6.50;57.80
10538;DHT22;5317;49.048;8.468;2023-02-11T05:45:47;6.60;57.60
10538;DHT22;5317;49.048;8.468;2023-02-11T05:48:14;6.70;57.40
10538;DHT22;5317;49.048;8.468;2023-02-11T05:50:42;6.70;57.30
10538;DHT22;5317;49.048;8.468;2023-02-11T05:53:09;6.80;57.10
10538;DHT22;5317;49.048;8.468;2023-02-11T05:55:36;6.80;57.00
10538;DHT22;5317;49.048;8.468;2023-02-11T05:58:03;6.70;56.90
10538;DHT22;5317;49.048;8.468;2023-02-11T06:00:30;6.70;56.90
10538;DHT22;5317;49.048;8.468;2023-02-11T06:02:57;6.80;57.00
10538;DHT22;5317;49.048;8.468;2023-02-11T06:05:24;6.80;56.90
10538;DHT22;5317;49.048;8.468;2023-02-11T06:07:52;6.80;56.80
10538;DHT22;5317;49.048;8.468;2023-02-11T06:10:19;6.80;56.80
10538;DHT22;5317;49.048;8.468;2023-02-11T06:12:47;6.80;56.70
10538;DHT22;5317;49.048;8.468;2023-02-11T06:15:14;6.80;56.60
10538;DHT22;5317;49.048;8.468;2023-02-11T06:17:41;6.70;56.60
10538;DHT22;5317;49.048;8.468;2023-02-11T06:20:09;6.60;56.70
10538;DHT22;5317;49.048;8.468;2023-02-11T06:22:36;6.50;56.90
10538;DHT22;5317;49.048;8.468;2023-02-11T06:25:05;6.40;57.10
10538;DHT22;5317;49.048;8.468;2023-02-11T06:27:32;6.30;57.50
10538;DHT22;5317;49.048;8.468;2023-02-11T06:29:59;6.20;57.50
10538;DHT22;5317;49.048;8.468;2023-02-11T06:32:26;6.30;57.80
10538;DHT22;5317;49.048;8.468;2023-02-11T06:34:53;6.30;57.90
10538;DHT22;5317;49.048;8.468;2023-02-11T06:37:20;6.20;57.50
10538;DHT22;5317;49.048;8.468;2023-02-11T06:39:46;6.30;57.60
10538;DHT22;5317;49.048;8.468;2023-02-11T06:42:15;6.30;57.60
10538;DHT22;5317;49.048;8.468;2023-02-11T06:44:41;6.40;57.40
10538;DHT22;5317;49.048;8.468;2023-02-11T06:47:09;6.40;57.30
10538;DHT22;5317;49.048;8.468;2023-02-11T06:49:36;6.40;57.10
10538;DHT22;5317;49.048;8.468;2023-02-11T06:52:03;6.40;57.10
10538;DHT22;5317;49.048;8.468;2023-02-11T06:54:30;6.50;57.10
10538;DHT22;5317;49.048;8.468;2023-02-11T06:56:57;6.50;57.10
10538;DHT22;5317;49.048;8.468;2023-02-11T06:59:25;6.50;57.10
10538;DHT22;5317;49.048;8.468;2023-02-11T07:01:52;6.40;57.10
10538;DHT22;5317;49.048;8.468;2023-02-11T07:04:19;6.40;57.00
10538;DHT22;5317;49.048;8.468;2023-02-11T07:06:47;6.30;57.00
10538;DHT22;5317;49.048;8.468;2023-02-11T07:09:14;6.40;57.20
10538;DHT22;5317;49.048;8.468;2023-02-11T07:11:41;6.40;57.20
10538;DHT22;5317;49.048;8.468;2023-02-11T07:14:09;6.40;57.30
10538;DHT22;5317;49.048;8.468;2023-02-11T07:16:39;6.40;57.20
10538;DHT22;5317;49.048;8.468;2023-02-11T07:19:06;6.40;57.30
10538;DHT22;5317;49.048;8.468;2023-02-11T07:21:33;6.40;57.30
10538;DHT22;5317;49.048;8.468;2023-02-11T07:24:00;6.40;57.30
10538;DHT22;5317;49.048;8.468;2023-02-11T07:26:27;6.50;57.40
10538;DHT22;5317;49.048;8.468;2023-02-11T07:28:54;6.40;57.30
10538;DHT22;5317;49.048;8.468;2023-02-11T07:31:23;6.40;57.30
10538;DHT22;5317;49.048;8.468;2023-02-11T07:33:53;6.50;57.40
10538;DHT22;5317;49.048;8.468;2023-02-11T07:36:20;6.50;57.30
10538;DHT22;5317;49.048;8.468;2023-02-11T07:38:48;6.50;57.50
10538;DHT22;5317;49.048;8.468;2023-02-11T07:41:18;6.50;57.30
10538;DHT22;5317;49.048;8.468;2023-02-11T07:43:46;6.50;57.20
10538;DHT22;5317;49.048;8.468;2023-02-11T07:46:15;6.50;57.50
10538;DHT22;5317;49.048;8.468;2023-02-11T07:48:42;6.50;57.60
10538;DHT22;5317;49.048;8.468;2023-02-11T07:51:12;6.50;57.80
10538;DHT22;5317;49.048;8.468;2023-02-11T07:53:39;6.50;57.80
10538;DHT22;5317;49.048;8.468;2023-02-11T07:56:07;6.50;57.60
10538;DHT22;5317;49.048;8.468;2023-02-11T07:58:35;6.40;57.70
10538;DHT22;5317;49.048;8.468;2023-02-11T08:01:03;6.50;57.80
10538;DHT22;5317;49.048;8.468;2023-02-11T08:03:30;6.40;58.00
10538;DHT22;5317;49.048;8.468;2023-02-11T08:05:58;6.40;58.30
10538;DHT22;5317;49.048;8.468;2023-02-11T08:08:30;6.40;58.20
10538;DHT22;5317;49.048;8.468;2023-02-11T08:10:56;6.40;58.30
10538;DHT22;5317;49.048;8.468;2023-02-11T08:13:23;6.40;58.20
10538;DHT22;5317;49.048;8.468;2023-02-11T08:15:51;6.40;58.20
10538;DHT22;5317;49.048;8.468;2023-02-11T08:18:18;6.30;58.40
10538;DHT22;5317;49.048;8.468;2023-02-11T08:20:45;6.30;58.50
10538;DHT22;5317;49.048;8.468;2023-02-11T08:23:12;6.30;58.70
10538;DHT22;5317;49.048;8.468;2023-02-11T08:25:40;6.30;58.70
10538;DHT22;5317;49.048;8.468;2023-02-11T08:28:07;6.40;58.60
10538;DHT22;5317;49.048;8.468;2023-02-11T08:30:34;6.30;58.50
10538;DHT22;5317;49.048;8.468;2023-02-11T08:33:01;6.40;58.30
10538;DHT22;5317;49.048;8.468;2023-02-11T08:35:28;6.50;58.30
10538;DHT22;5317;49.048;8.468;2023-02-11T08:37:55;6.60;58.00
10538;DHT22;5317;49.048;8.468;2023-02-11T08:40:22;6.70;57.90
10538;DHT22;5317;49.048;8.468;2023-02-11T08:42:51;6.70;57.60
10538;DHT22;5317;49.048;8.468;2023-02-11T08:45:17;6.80;57.60
10538;DHT22;5317;49.048;8.468;2023-02-11T08:47:44;6.80;57.40
10538;DHT22;5317;49.048;8.468;2023-02-11T08:50:11;6.80;57.50
10538;DHT22;5317;49.048;8.468;2023-02-11T08:52:39;6.80;57.90
10538;DHT22;5317;49.048;8.468;2023-02-11T08:55:07;6.90;57.30
10538;DHT22;5317;49.048;8.468;2023-02-11T08:57:34;6.90;57.00
10538;DHT22;5317;49.048;8.468;2023-02-11T09:00:03;7.00;56.80
10538;DHT22;5317;49.048;8.468;2023-02-11T09:02:30;6.90;56.70
10538;DHT22;5317;49.048;8.468;2023-02-11T09:04:57;7.00;56.70
10538;DHT22;5317;49.048;8.468;2023-02-11T09:07:24;7.10;56.40
10538;DHT22;5317;49.048;8.468;2023-02-11T09:09:51;7.10;56.20
10538;DHT22;5317;49.048;8.468;2023-02-11T09:12:18;7.20;56.10
10538;DHT22;5317;49.048;8.468;2023-02-11T09:14:44;7.30;56.00
10538;DHT22;5317;49.048;8.468;2023-02-11T09:17:13;7.40;56.00
10538;DHT22;5317;49.048;8.468;2023-02-11T09:19:40;7.60;55.80
10538;DHT22;5317;49.048;8.468;2023-02-11T09:22:06;7.80;55.40
10538;DHT22;5317;49.048;8.468;2023-02-11T09:24:33;8.00;54.90
10538;DHT22;5317;49.048;8.468;2023-02-11T09:27:00;8.10;54.70
10538;DHT22;5317;49.048;8.468;2023-02-11T09:29:27;8.30;54.20
10538;DHT22;5317;49.048;8.468;2023-02-11T09:31:54;8.30;54.00
10538;DHT22;5317;49.048;8.468;2023-02-11T09:34:22;8.30;53.80
10538;DHT22;5317;49.048;8.468;2023-02-11T09:36:49;8.30;53.60
10538;DHT22;5317;49.048;8.468;2023-02-11T09:39:17;8.20;53.60
10538;DHT22;5317;49.048;8.468;2023-02-11T09:44:59;8.20;53.60
10538;DHT22;5317;49.048;8.468;2023-02-11T09:47:29;8.10;53.80
10538;DHT22;5317;49.048;8.468;2023-02-11T09:50:02;8.30;53.70
10538;DHT22;5317;49.048;8.468;2023-02-11T09:52:35;8.40;53.50
10538;DHT22;5317;49.048;8.468;2023-02-11T09:55:05;8.50;53.20
10538;DHT22;5317;49.048;8.468;2023-02-11T09:57:37;8.60;54.10
10538;DHT22;5317;49.048;8.468;2023-02-11T10:00:18;8.70;52.80
10538;DHT22;5317;49.048;8.468;2023-02-11T10:02:59;8.70;52.80
10538;DHT22;5317;49.048;8.468;2023-02-11T10:05:42;8.90;53.00
10538;DHT22;5317;49.048;8.468;2023-02-11T10:08:21;9.20;52.60
10538;DHT22;5317;49.048;8.468;2023-02-11T10:10:54;9.60;52.00
10538;DHT22;5317;49.048;8.468;2023-02-11T10:13:37;9.70;51.60
10538;DHT22;5317;49.048;8.468;2023-02-11T10:16:24;9.90;51.40
10538;DHT22;5317;49.048;8.468;2023-02-11T10:19:13;9.80;51.20
10538;DHT22;5317;49.048;8.468;2023-02-11T10:21:54;9.70;51.20
10538;DHT22;5317;49.048;8.468;2023-02-11T10:24:23;9.50;51.40
10538;DHT22;5317;49.048;8.468;2023-02-11T10:26:52;9.40;51.90
10538;DHT22;5317;49.048;8.468;2023-02-11T10:29:34;9.50;52.00
10538;DHT22;5317;49.048;8.468;2023-02-11T10:32:09;9.60;52.00
10538;DHT22;5317;49.048;8.468;2023-02-11T10:34:40;9.70;52.10
10538;DHT22;5317;49.048;8.468;2023-02-11T10:37:12;9.90;51.90
10538;DHT22;5317;49.048;8.468;2023-02-11T10:39:40;10.20;50.60
10538;DHT22;5317;49.048;8.468;2023-02-11T10:42:09;10.40;50.50
10538;DHT22;5317;49.048;8.468;2023-02-11T10:44:38;10.60;50.20
10538;DHT22;5317;49.048;8.468;2023-02-11T10:47:13;10.70;49.70
10538;DHT22;5317;49.048;8.468;2023-02-11T10:49:44;10.80;49.30
10538;DHT22;5317;49.048;8.468;2023-02-11T10:52:19;10.90;49.30
10538;DHT22;5317;49.048;8.468;2023-02-11T10:55:13;10.90;48.80
10538;DHT22;5317;49.048;8.468;2023-02-11T10:57:42;11.10;48.90
10538;DHT22;5317;49.048;8.468;2023-02-11T11:00:33;11.20;48.70
10538;DHT22;5317;49.048;8.468;2023-02-11T11:03:04;11.40;48.50
10538;DHT22;5317;49.048;8.468;2023-02-11T11:05:35;11.60;48.50
10538;DHT22;5317;49.048;8.468;2023-02-11T11:08:05;11.80;47.90
10538;DHT22;5317;49.048;8.468;2023-02-11T11:10:38;11.90;47.50
10538;DHT22;5317;49.048;8.468;2023-02-11T11:13:27;11.90;46.80
10538;DHT22;5317;49.048;8.468;2023-02-11T11:16:09;12.00;47.00
10538;DHT22;5317;49.048;8.468;2023-02-11T11:18:42;12.20;47.30
10538;DHT22;5317;49.048;8.468;2023-02-11T11:21:14;12.20;46.90
10538;DHT22;5317;49.048;8.468;2023-02-11T11:23:49;12.20;46.70
10538;DHT22;5317;49.048;8.468;2023-02-11T11:26:17;12.30;46.70
10538;DHT22;5317;49.048;8.468;2023-02-11T11:28:56;12.30;46.80
10538;DHT22;5317;49.048;8.468;2023-02-11T11:31:29;12.50;46.90
10538;DHT22;5317;49.048;8.468;2023-02-11T11:33:59;12.60;46.60
10538;DHT22;5317;49.048;8.468;2023-02-11T11:36:34;12.70;46.70
10538;DHT22;5317;49.048;8.468;2023-02-11T11:39:17;12.80;46.30
10538;DHT22;5317;49.048;8.468;2023-02-11T11:41:51;13.00;46.40
10538;DHT22;5317;49.048;8.468;2023-02-11T11:44:24;13.00;45.80
10538;DHT22;5317;49.048;8.468;2023-02-11T11:49:49;13.10;45.80
10538;DHT22;5317;49.048;8.468;2023-02-11T11:52:27;13.20;46.00
10538;DHT22;5317;49.048;8.468;2023-02-11T11:55:04;13.10;45.50
10538;DHT22;5317;49.048;8.468;2023-02-11T11:57:36;13.20;45.80
10538;DHT22;5317;49.048;8.468;2023-02-11T12:00:04;13.40;45.80
10538;DHT22;5317;49.048;8.468;2023-02-11T12:02:59;13.60;45.40
10538;DHT22;5317;49.048;8.468;2023-02-11T12:05:36;13.80;45.20
10538;DHT22;5317;49.048;8.468;2023-02-11T12:08:12;13.80;45.00
10538;DHT22;5317;49.048;8.468;2023-02-11T12:10:57;14.00;45.00
10538;DHT22;5317;49.048;8.468;2023-02-11T12:13:43;14.10;44.80
10538;DHT22;5317;49.048;8.468;2023-02-11T12:16:21;14.20;44.80
10538;DHT22;5317;49.048;8.468;2023-02-11T12:22:07;14.30;44.40
10538;DHT22;5317;49.048;8.468;2023-02-11T12:24:53;14.50;44.70
10538;DHT22;5317;49.048;8.468;2023-02-11T12:27:36;14.60;44.40
10538;DHT22;5317;49.048;8.468;2023-02-11T12:32:50;15.00;44.00
10538;DHT22;5317;49.048;8.468;2023-02-11T12:35:30;15.20;43.90
10538;DHT22;5317;49.048;8.468;2023-02-11T12:38:18;15.00;43.40
10538;DHT22;5317;49.048;8.468;2023-02-11T12:40:56;14.80;44.10
10538;DHT22;5317;49.048;8.468;2023-02-11T12:43:35;14.60;44.50
10538;DHT22;5317;49.048;8.468;2023-02-11T12:46:17;14.80;44.80
10538;DHT22;5317;49.048;8.468;2023-02-11T12:49:05;15.00;44.60
10538;DHT22;5317;49.048;8.468;2023-02-11T12:51:50;15.10;43.50
10538;DHT22;5317;49.048;8.468;2023-02-11T12:54:25;15.20;43.60
10538;DHT22;5317;49.048;8.468;2023-02-11T12:56:58;15.20;43.70
10538;DHT22;5317;49.048;8.468;2023-02-11T12:59:43;15.30;43.70
10538;DHT22;5317;49.048;8.468;2023-02-11T13:02:20;15.60;43.80
10538;DHT22;5317;49.048;8.468;2023-02-11T13:04:54;16.10;43.10
10538;DHT22;5317;49.048;8.468;2023-02-11T13:07:25;16.30;42.20
10538;DHT22;5317;49.048;8.468;2023-02-11T13:09:57;16.60;42.10
10538;DHT22;5317;49.048;8.468;2023-02-11T13:12:28;17.00;42.40
10538;DHT22;5317;49.048;8.468;2023-02-11T13:15:15;17.40;41.60
10538;DHT22;5317;49.048;8.468;2023-02-11T13:17:48;17.60;40.00
10538;DHT22;5317;49.048;8.468;2023-02-11T13:20:23;17.60;40.10
10538;DHT22;5317;49.048;8.468;2023-02-11T13:22:57;17.80;40.20
10538;DHT22;5317;49.048;8.468;2023-02-11T13:25:30;18.70;39.70
10538;DHT22;5317;49.048;8.468;2023-02-11T13:28:07;19.60;38.70
10538;DHT22;5317;49.048;8.468;2023-02-11T13:30:38;20.00;38.20
10538;DHT22;5317;49.048;8.468;2023-02-11T13:33:20;20.50;37.80
10538;DHT22;5317;49.048;8.468;2023-02-11T13:36:09;21.00;36.40
10538;DHT22;5317;49.048;8.468;2023-02-11T13:38:37;21.40;35.70
10538;DHT22;5317;49.048;8.468;2023-02-11T13:41:13;22.50;35.40
10538;DHT22;5317;49.048;8.468;2023-02-11T13:43:42;24.60;34.00
10538;DHT22;5317;49.048;8.468;2023-02-11T13:46:15;26.70;31.40
10538;DHT22;5317;49.048;8.468;2023-02-11T13:48:46;28.30;29.80
10538;DHT22;5317;49.048;8.468;2023-02-11T13:51:16;29.70;28.30
10538;DHT22;5317;49.048;8.468;2023-02-11T13:53:46;29.30;28.10
10538;DHT22;5317;49.048;8.468;2023-02-11T13:56:26;27.90;28.50
10538;DHT22;5317;49.048;8.468;2023-02-11T13:58:55;26.50;28.90
10538;DHT22;5317;49.048;8.468;2023-02-11T14:01:40;25.10;29.90
10538;DHT22;5317;49.048;8.468;2023-02-11T14:04:21;23.30;30.70
10538;DHT22;5317;49.048;8.468;2023-02-11T14:07:26;22.10;32.20
10538;DHT22;5317;49.048;8.468;2023-02-11T14:10:48;21.00;33.30
10538;DHT22;5317;49.048;8.468;2023-02-11T14:13:23;20.80;34.50
10538;DHT22;5317;49.048;8.468;2023-02-11T14:16:07;22.30;33.40
10538;DHT22;5317;49.048;8.468;2023-02-11T14:18:58;22.60;32.50
10538;DHT22;5317;49.048;8.468;2023-02-11T14:21:34;23.70;32.20
10538;DHT22;5317;49.048;8.468;2023-02-11T14:27:42;24.90;30.00
10538;DHT22;5317;49.048;8.468;2023-02-11T14:30:25;23.30;31.00
10538;DHT22;5317;49.048;8.468;2023-02-11T14:33:08;22.20;32.20
10538;DHT22;5317;49.048;8.468;2023-02-11T14:35:46;21.10;33.30
10538;DHT22;5317;49.048;8.468;2023-02-11T14:38:21;20.30;34.60
10538;DHT22;5317;49.048;8.468;2023-02-11T14:40:56;19.90;35.30
10538;DHT22;5317;49.048;8.468;2023-02-11T14:43:28;20.40;35.50
10538;DHT22;5317;49.048;8.468;2023-02-11T14:45:57;22.10;34.40
10538;DHT22;5317;49.048;8.468;2023-02-11T14:48:29;22.40;33.10
10538;DHT22;5317;49.048;8.468;2023-02-11T14:51:03;22.60;33.30
10538;DHT22;5317;49.048;8.468;2023-02-11T14:53:33;22.70;33.20
10538;DHT22;5317;49.048;8.468;2023-02-11T14:56:00;22.60;33.00
10538;DHT22;5317;49.048;8.468;2023-02-11T14:58:28;22.70;33.00
10538;DHT22;5317;49.048;8.468;2023-02-11T15:00:57;22.80;32.90
10538;DHT22;5317;49.048;8.468;2023-02-11T15:03:46;23.20;32.70
10538;DHT22;5317;49.048;8.468;2023-02-11T15:06:16;22.50;32.30
10538;DHT22;5317;49.048;8.468;2023-02-11T15:08:47;21.80;33.10
10538;DHT22;5317;49.048;8.468;2023-02-11T15:11:17;20.60;34.10
10538;DHT22;5317;49.048;8.468;2023-02-11T15:13:47;19.60;35.70
10538;DHT22;5317;49.048;8.468;2023-02-11T15:16:17;19.00;36.70
10538;DHT22;5317;49.048;8.468;2023-02-11T15:18:48;18.40;37.40
10538;DHT22;5317;49.048;8.468;2023-02-11T15:21:21;17.90;38.20
10538;DHT22;5317;49.048;8.468;2023-02-11T15:23:59;17.40;39.00
10538;DHT22;5317;49.048;8.468;2023-02-11T15:26:28;17.10;39.80
10538;DHT22;5317;49.048;8.468;2023-02-11T15:28:55;16.70;40.20
10538;DHT22;5317;49.048;8.468;2023-02-11T15:31:24;16.30;40.90
10538;DHT22;5317;49.048;8.468;2023-02-11T15:33:51;16.10;41.70
10538;DHT22;5317;49.048;8.468;2023-02-11T15:36:22;15.90;41.80
10538;DHT22;5317;49.048;8.468;2023-02-11T15:39:14;15.70;42.30
10538;DHT22;5317;49.048;8.468;2023-02-11T15:41:41;15.40;43.10
10538;DHT22;5317;49.048;8.468;2023-02-11T15:44:25;15.20;43.30
10538;DHT22;5317;49.048;8.468;2023-02-11T15:46:53;15.10;44.00
10538;DHT22;5317;49.048;8.468;2023-02-11T15:49:20;15.10;43.90
10538;DHT22;5317;49.048;8.468;2023-02-11T15:51:49;15.00;44.10
10538;DHT22;5317;49.048;8.468;2023-02-11T15:54:19;15.10;44.20
10538;DHT22;5317;49.048;8.468;2023-02-11T15:56:48;15.00;44.20
10538;DHT22;5317;49.048;8.468;2023-02-11T15:59:18;14.80;44.40
10538;DHT22;5317;49.048;8.468;2023-02-11T16:01:48;14.70;44.80
10538;DHT22;5317;49.048;8.468;2023-02-11T16:04:17;14.50;44.80
10538;DHT22;5317;49.048;8.468;2023-02-11T16:06:45;14.50;45.30
10538;DHT22;5317;49.048;8.468;2023-02-11T16:09:29;14.40;46.10
10538;DHT22;5317;49.048;8.468;2023-02-11T16:11:59;14.40;45.80
10538;DHT22;5317;49.048;8.468;2023-02-11T16:14:32;14.40;45.70
10538;DHT22;5317;49.048;8.468;2023-02-11T16:17:03;14.40;45.90
10538;DHT22;5317;49.048;8.468;2023-02-11T16:19:32;14.30;45.90
10538;DHT22;5317;49.048;8.468;2023-02-11T16:22:05;14.20;46.00
10538;DHT22;5317;49.048;8.468;2023-02-11T16:24:36;14.10;46.30
10538;DHT22;5317;49.048;8.468;2023-02-11T16:27:06;14.00;46.70
10538;DHT22;5317;49.048;8.468;2023-02-11T16:29:35;14.00;46.90
10538;DHT22;5317;49.048;8.468;2023-02-11T16:32:08;14.00;47.10
10538;DHT22;5317;49.048;8.468;2023-02-11T16:34:35;14.00;47.10
10538;DHT22;5317;49.048;8.468;2023-02-11T16:37:03;14.10;47.00
10538;DHT22;5317;49.048;8.468;2023-02-11T16:39:30;14.10;47.10
10538;DHT22;5317;49.048;8.468;2023-02-11T16:42:00;14.10;47.10